Cruise inventory

RRS John Murray JM13/79

Cruise summary report

Cruise Info. 
Ship name (ship code)RRS John Murray (74MJ)
Cruise identifierJM13/79
Cruise period1979-08-20 — 1979-09-06
StatusCompleted
Port of departurePlymouth, United Kingdom
Port of returnBarry, United Kingdom
ObjectivesThe objectives of this cruise were:
(1) To deploy two current meter moorings and two current meter-tide gauge moorings at three stations (one with both types of mooring) in an E-W line off the Danish coast just north of 55N between 6 and 8 E. Accomplished.
(2) To survey a grid of CTD stations from 53.5-55.5N and 6-9E. Worked three during the cruise.
(3) To make along-track continuously logged surface temperature and salinity measurements. Accomplished.
(4) To make air temperature, air pressure, cloud cover and solar radiation measurements. Accomplished.
Chief scientistIan D James (Institute of Oceanographic Sciences Bidston Laboratory)
ProjectMARSEN
Cruise reportRRS John Murray JM13/79 cruise report john_murray13_79.pdf — access key 'C' (0.30 MB) 
Ocean/sea areas 
GeneralNorth Sea
Track chartsRRS John Murray JM13/79 cruise track — trk2399a.html RRS John Murray JM13/79 cruise track — trk2399b.html
Measurements 
Physical oceanography 
Surface measurements underway (T,S)
CTD stationsQuantity: number of stations = 210
Current metersQuantity: number of deployments = 3
Description: 60 days
Sea level (inc. bot. press., inverted echosounder)Quantity: number of deployments = 2
Description: 60-day moorings for dynamics: these moorings were recovered by Gauss,15-24 Oct.1979.
Meteorology 
Incident radiation
Routine standard measurements
Data held at BODC 
Series/Profiles 
210  CTD/STD cast
Vertical spatial coordinates
Salinity of the water column
Temperature of the water column
Vertical spatial coordinates
Salinity of the water column
Temperature of the water column

BODC idDate/TimeLocationDoc.
5450241979-08-31 12:42  — 1979-08-31 12:43 55° 4' 46" N  7° 59' 26" E  View metadata report for BODC series reference number 545024
5450361979-08-31 13:26  — 1979-08-31 13:27 55° 5' 1" N  7° 49' 50" E  View metadata report for BODC series reference number 545036
5450481979-08-31 14:19  — 1979-08-31 14:19 55° 5' 1" N  7° 39' 55" E  View metadata report for BODC series reference number 545048
5450611979-08-31 15:04  — 1979-08-31 15:05 55° 4' 51" N  7° 29' 44" E  View metadata report for BODC series reference number 545061
5450731979-08-31 15:52  — 1979-08-31 15:52 55° 4' 53" N  7° 19' 59" E  View metadata report for BODC series reference number 545073
5450851979-08-31 16:35  — 1979-08-31 16:37 55° 5' 4" N  7° 10' 5" E  View metadata report for BODC series reference number 545085
5450971979-08-31 17:43  — 1979-08-31 17:44 55° 4' 54" N  6° 59' 46" E  View metadata report for BODC series reference number 545097
5451041979-08-31 18:25  — 1979-08-31 18:26 55° 5' 0" N  6° 49' 56" E  View metadata report for BODC series reference number 545104
5451161979-08-31 19:17  — 1979-08-31 19:18 55° 4' 52" N  6° 38' 4" E  View metadata report for BODC series reference number 545116
5451281979-08-31 19:59  — 1979-08-31 20:00 55° 4' 50" N  6° 28' 54" E  View metadata report for BODC series reference number 545128
5451411979-08-31 20:53  — 1979-08-31 20:54 55° 4' 47" N  6° 17' 45" E  View metadata report for BODC series reference number 545141
5451531979-08-31 22:09  — 1979-08-31 22:10 54° 55' 24" N  6° 21' 35" E  View metadata report for BODC series reference number 545153
5451651979-08-31 22:57  — 1979-08-31 22:58 54° 55' 9" N  6° 31' 41" E  View metadata report for BODC series reference number 545165
5451771979-08-31 23:41  — 1979-08-31 23:43 54° 54' 8" N  6° 40' 39" E  View metadata report for BODC series reference number 545177
5451891979-09-01 00:25  — 1979-09-01 00:27 54° 54' 23" N  6° 50' 53" E  View metadata report for BODC series reference number 545189
5451901979-09-01 01:07  — 1979-09-01 01:08 54° 54' 44" N  7° 0' 24" E  View metadata report for BODC series reference number 545190
5452081979-09-01 02:07  — 1979-09-01 02:11 54° 54' 35" N  7° 10' 7" E  View metadata report for BODC series reference number 545208
5452211979-09-01 02:51  — 1979-09-01 02:51 54° 54' 45" N  7° 20' 8" E  View metadata report for BODC series reference number 545221
5452331979-09-01 03:33  — 1979-09-01 03:33 54° 54' 42" N  7° 30' 34" E  View metadata report for BODC series reference number 545233
5452451979-09-01 04:14  — 1979-09-01 04:15 54° 55' 9" N  7° 39' 46" E  View metadata report for BODC series reference number 545245
5452571979-09-01 05:00  — 1979-09-01 05:00 54° 54' 52" N  7° 50' 8" E  View metadata report for BODC series reference number 545257
5452691979-09-01 05:41  — 1979-09-01 05:41 54° 54' 57" N  7° 59' 52" E  View metadata report for BODC series reference number 545269
5452701979-09-01 06:23  — 1979-09-01 06:24 54° 54' 49" N  8° 10' 13" E  View metadata report for BODC series reference number 545270
5452821979-09-01 07:56  — 1979-09-01 07:56 54° 44' 57" N  8° 9' 51" E  View metadata report for BODC series reference number 545282
5452941979-09-01 08:56  — 1979-09-01 08:57 54° 45' 3" N  7° 59' 49" E  View metadata report for BODC series reference number 545294
5453011979-09-01 09:39  — 1979-09-01 09:40 54° 44' 53" N  7° 50' 1" E  View metadata report for BODC series reference number 545301
5453131979-09-01 10:20  — 1979-09-01 10:21 54° 44' 55" N  7° 39' 40" E  View metadata report for BODC series reference number 545313
5453251979-09-01 11:03  — 1979-09-01 11:03 54° 44' 51" N  7° 30' 15" E  View metadata report for BODC series reference number 545325
5453371979-09-01 11:55  — 1979-09-01 11:56 54° 44' 53" N  7° 19' 56" E  View metadata report for BODC series reference number 545337
5453491979-09-01 12:42  — 1979-09-01 12:43 54° 45' 17" N  7° 9' 25" E  View metadata report for BODC series reference number 545349
5453501979-09-01 13:31  — 1979-09-01 13:32 54° 44' 49" N  6° 59' 50" E  View metadata report for BODC series reference number 545350
5453621979-09-01 14:21  — 1979-09-01 14:22 54° 44' 49" N  6° 49' 41" E  View metadata report for BODC series reference number 545362
5453741979-09-01 15:18  — 1979-09-01 15:19 54° 44' 49" N  6° 40' 34" E  View metadata report for BODC series reference number 545374
5453861979-09-01 16:06  — 1979-09-01 16:07 54° 44' 31" N  6° 30' 42" E  View metadata report for BODC series reference number 545386
5453981979-09-01 16:54  — 1979-09-01 16:54 54° 44' 49" N  6° 20' 6" E  View metadata report for BODC series reference number 545398
5454051979-09-01 18:06  — 1979-09-01 18:07 54° 34' 46" N  6° 20' 19" E  View metadata report for BODC series reference number 545405
5454171979-09-01 18:54  — 1979-09-01 18:55 54° 34' 45" N  6° 30' 37" E  View metadata report for BODC series reference number 545417
5454291979-09-01 19:40  — 1979-09-01 19:41 54° 34' 50" N  6° 40' 15" E  View metadata report for BODC series reference number 545429
5454301979-09-01 20:23  — 1979-09-01 20:25 54° 34' 58" N  6° 49' 36" E  View metadata report for BODC series reference number 545430
5454421979-09-01 21:08  — 1979-09-01 21:11 54° 34' 56" N  6° 59' 44" E  View metadata report for BODC series reference number 545442
5454541979-09-01 22:05  — 1979-09-01 22:06 54° 34' 48" N  7° 10' 3" E  View metadata report for BODC series reference number 545454
5454661979-09-01 22:51  — 1979-09-01 22:52 54° 34' 48" N  7° 19' 58" E  View metadata report for BODC series reference number 545466
5454781979-09-01 23:38  — 1979-09-01 23:39 54° 34' 43" N  7° 29' 53" E  View metadata report for BODC series reference number 545478
5454911979-09-02 00:25  — 1979-09-02 00:26 54° 34' 41" N  7° 39' 47" E  View metadata report for BODC series reference number 545491
5455091979-09-02 01:15  — 1979-09-02 01:16 54° 34' 59" N  7° 49' 56" E  View metadata report for BODC series reference number 545509
5455101979-09-02 02:00  — 1979-09-02 02:00 54° 34' 55" N  8° 0' 7" E  View metadata report for BODC series reference number 545510
5455221979-09-02 02:41  — 1979-09-02 02:42 54° 34' 55" N  8° 10' 23" E  View metadata report for BODC series reference number 545522
5455341979-09-02 03:55  — 1979-09-02 03:55 54° 24' 56" N  8° 10' 0" E  View metadata report for BODC series reference number 545534
5455461979-09-02 04:49  — 1979-09-02 04:50 54° 24' 55" N  7° 59' 55" E  View metadata report for BODC series reference number 545546
5455581979-09-02 05:38  — 1979-09-02 05:39 54° 25' 2" N  7° 49' 46" E  View metadata report for BODC series reference number 545558
5455711979-09-02 06:24  — 1979-09-02 06:25 54° 24' 56" N  7° 40' 13" E  View metadata report for BODC series reference number 545571
5455831979-09-02 07:10  — 1979-09-02 07:11 54° 24' 57" N  7° 30' 6" E  View metadata report for BODC series reference number 545583
5455951979-09-02 07:56  — 1979-09-02 07:57 54° 25' 1" N  7° 19' 57" E  View metadata report for BODC series reference number 545595
5456021979-09-02 08:41  — 1979-09-02 08:42 54° 25' 5" N  7° 10' 0" E  View metadata report for BODC series reference number 545602
5456141979-09-02 09:24  — 1979-09-02 09:26 54° 24' 52" N  6° 59' 58" E  View metadata report for BODC series reference number 545614
5434471979-09-02 19:34  — 1979-09-02 19:35 54° 4' 57" N  7° 29' 55" E  View metadata report for BODC series reference number 543447
5434591979-09-02 20:19  — 1979-09-02 20:19 54° 4' 54" N  7° 40' 14" E  View metadata report for BODC series reference number 543459
5434601979-09-02 21:02  — 1979-09-02 21:03 54° 5' 4" N  7° 49' 55" E  View metadata report for BODC series reference number 543460
5434721979-09-02 21:50  — 1979-09-02 21:51 54° 4' 48" N  8° 0' 20" E  View metadata report for BODC series reference number 543472
5434841979-09-02 22:37  — 1979-09-02 22:37 54° 4' 58" N  8° 9' 43" E  View metadata report for BODC series reference number 543484
5434961979-09-02 23:35  — 1979-09-02 23:36 54° 4' 52" N  8° 19' 56" E  View metadata report for BODC series reference number 543496
5435031979-09-03 00:57  — 1979-09-03 00:57 54° 14' 55" N  8° 20' 3" E  View metadata report for BODC series reference number 543503
5435151979-09-03 01:44  — 1979-09-03 01:44 54° 14' 51" N  8° 9' 37" E  View metadata report for BODC series reference number 543515
5435271979-09-03 02:33  — 1979-09-03 02:34 54° 14' 53" N  7° 59' 53" E  View metadata report for BODC series reference number 543527
5435391979-09-03 03:35  — 1979-09-03 03:36 54° 15' 1" N  7° 49' 54" E  View metadata report for BODC series reference number 543539
5435401979-09-03 04:29  — 1979-09-03 04:30 54° 14' 49" N  7° 40' 0" E  View metadata report for BODC series reference number 543540
5435521979-09-03 05:24  — 1979-09-03 05:25 54° 14' 58" N  7° 29' 47" E  View metadata report for BODC series reference number 543552
5435641979-09-03 06:15  — 1979-09-03 06:16 54° 14' 50" N  7° 20' 34" E  View metadata report for BODC series reference number 543564
5435761979-09-03 07:14  — 1979-09-03 07:15 54° 14' 49" N  7° 10' 34" E  View metadata report for BODC series reference number 543576
5435881979-09-03 08:11  — 1979-09-03 08:12 54° 15' 2" N  6° 59' 50" E  View metadata report for BODC series reference number 543588
5436071979-09-03 08:58  — 1979-09-03 08:59 54° 14' 55" N  6° 50' 14" E  View metadata report for BODC series reference number 543607
5436191979-09-03 09:45  — 1979-09-03 09:46 54° 15' 0" N  6° 40' 30" E  View metadata report for BODC series reference number 543619
5436201979-09-03 10:36  — 1979-09-03 10:37 54° 14' 53" N  6° 30' 49" E  View metadata report for BODC series reference number 543620
5436321979-09-03 11:25  — 1979-09-03 11:26 54° 14' 33" N  6° 20' 28" E  View metadata report for BODC series reference number 543632
5436441979-08-23 08:57  — 1979-08-23 08:59 55° 5' 59" N  6° 30' 40" E  View metadata report for BODC series reference number 543644
5436561979-08-23 13:28  — 1979-08-23 13:30 55° 4' 41" N  7° 10' 40" E  View metadata report for BODC series reference number 543656
5436681979-08-23 16:54  — 1979-08-23 16:55 54° 59' 48" N  7° 49' 34" E  View metadata report for BODC series reference number 543668
5436811979-08-23 18:27  — 1979-08-23 18:29 55° 9' 57" N  7° 59' 41" E  View metadata report for BODC series reference number 543681
5436931979-08-23 19:22  — 1979-08-23 19:22 55° 9' 58" N  7° 50' 1" E  View metadata report for BODC series reference number 543693
5437001979-08-23 20:16  — 1979-08-23 20:16 55° 9' 49" N  7° 39' 28" E  View metadata report for BODC series reference number 543700
5437121979-08-23 21:07  — 1979-08-23 21:09 55° 9' 41" N  7° 29' 54" E  View metadata report for BODC series reference number 543712
5437241979-08-23 21:58  — 1979-08-23 21:59 55° 9' 58" N  7° 20' 13" E  View metadata report for BODC series reference number 543724
5437361979-08-23 22:52  — 1979-08-23 22:53 55° 9' 53" N  7° 9' 47" E  View metadata report for BODC series reference number 543736
5437481979-08-23 23:46  — 1979-08-23 23:47 55° 10' 10" N  7° 0' 56" E  View metadata report for BODC series reference number 543748
5437611979-08-24 00:43  — 1979-08-24 00:44 55° 9' 47" N  6° 49' 21" E  View metadata report for BODC series reference number 543761
5437731979-08-24 01:42  — 1979-08-24 01:43 55° 10' 5" N  6° 42' 29" E  View metadata report for BODC series reference number 543773
5437851979-08-24 02:43  — 1979-08-24 02:44 55° 9' 38" N  6° 28' 41" E  View metadata report for BODC series reference number 543785
5437971979-08-24 03:24  — 1979-08-24 03:26 55° 9' 52" N  6° 19' 16" E  View metadata report for BODC series reference number 543797
5438041979-08-24 04:52  — 1979-08-24 04:54 55° 0' 16" N  6° 20' 35" E  View metadata report for BODC series reference number 543804
5438161979-08-24 05:38  — 1979-08-24 05:39 55° 0' 6" N  6° 30' 12" E  View metadata report for BODC series reference number 543816
5438281979-08-24 06:27  — 1979-08-24 06:34 55° 0' 10" N  6° 39' 52" E  View metadata report for BODC series reference number 543828
5444631979-08-26 04:42  — 1979-08-26 04:42 54° 19' 55" N  8° 9' 59" E  View metadata report for BODC series reference number 544463
5444751979-08-26 05:28  — 1979-08-26 05:29 54° 19' 50" N  8° 19' 59" E  View metadata report for BODC series reference number 544475
5444871979-08-26 06:04  — 1979-08-26 06:05 54° 14' 49" N  8° 19' 12" E  View metadata report for BODC series reference number 544487
5444991979-08-26 06:47  — 1979-08-26 06:48 54° 14' 59" N  8° 9' 24" E  View metadata report for BODC series reference number 544499
5445061979-08-26 07:27  — 1979-08-26 07:27 54° 15' 1" N  7° 59' 16" E  View metadata report for BODC series reference number 544506
5445181979-08-26 08:08  — 1979-08-26 08:08 54° 14' 57" N  7° 49' 28" E  View metadata report for BODC series reference number 544518
5445311979-08-26 08:51  — 1979-08-26 08:52 54° 15' 1" N  7° 39' 44" E  View metadata report for BODC series reference number 544531
5445431979-08-26 09:41  — 1979-08-26 09:42 54° 14' 56" N  7° 30' 0" E  View metadata report for BODC series reference number 544543
5445551979-08-26 10:32  — 1979-08-26 10:33 54° 15' 4" N  7° 20' 2" E  View metadata report for BODC series reference number 544555
5445671979-08-26 11:22  — 1979-08-26 11:25 54° 14' 57" N  7° 10' 20" E  View metadata report for BODC series reference number 544567
5445791979-08-26 12:16  — 1979-08-26 12:18 54° 15' 1" N  7° 0' 4" E  View metadata report for BODC series reference number 544579
5445801979-08-26 13:11  — 1979-08-26 13:13 54° 14' 52" N  6° 49' 58" E  View metadata report for BODC series reference number 544580
5445921979-08-26 13:56  — 1979-08-26 13:56 54° 15' 4" N  6° 40' 10" E  View metadata report for BODC series reference number 544592
5446111979-08-26 14:40  — 1979-08-26 14:42 54° 15' 4" N  6° 30' 28" E  View metadata report for BODC series reference number 544611
5446231979-08-26 15:26  — 1979-08-26 15:27 54° 15' 8" N  6° 20' 5" E  View metadata report for BODC series reference number 544623
5446351979-08-26 16:12  — 1979-08-26 16:13 54° 10' 0" N  6° 20' 21" E  View metadata report for BODC series reference number 544635
5446471979-08-26 17:44  — 1979-08-26 17:45 54° 10' 10" N  6° 29' 42" E  View metadata report for BODC series reference number 544647
5446591979-08-26 18:41  — 1979-08-26 18:42 54° 10' 2" N  6° 39' 51" E  View metadata report for BODC series reference number 544659
5446601979-08-26 19:38  — 1979-08-26 19:40 54° 9' 43" N  6° 50' 16" E  View metadata report for BODC series reference number 544660
5446721979-08-26 20:33  — 1979-08-26 20:34 54° 10' 2" N  7° 0' 4" E  View metadata report for BODC series reference number 544672
5446841979-08-26 21:29  — 1979-08-26 21:32 54° 9' 45" N  7° 9' 40" E  View metadata report for BODC series reference number 544684
5446961979-08-26 22:22  — 1979-08-26 22:23 54° 9' 31" N  7° 20' 12" E  View metadata report for BODC series reference number 544696
5447031979-08-29 00:39  — 1979-08-29 00:49 54° 10' 37" N  7° 29' 53" E  View metadata report for BODC series reference number 544703
5447151979-08-29 01:34  — 1979-08-29 01:35 54° 10' 4" N  7° 39' 52" E  View metadata report for BODC series reference number 544715
5447271979-08-29 02:25  — 1979-08-29 02:30 54° 9' 47" N  7° 49' 48" E  View metadata report for BODC series reference number 544727
5447391979-08-29 03:20  — 1979-08-29 03:21 54° 9' 56" N  8° 0' 3" E  View metadata report for BODC series reference number 544739
5447401979-08-29 04:05  — 1979-08-29 04:06 54° 9' 47" N  8° 10' 28" E  View metadata report for BODC series reference number 544740
5447521979-08-29 04:56  — 1979-08-29 04:56 54° 9' 57" N  8° 19' 50" E  View metadata report for BODC series reference number 544752
5447641979-08-29 06:17  — 1979-08-29 06:18 54° 0' 3" N  8° 9' 42" E  View metadata report for BODC series reference number 544764
5447761979-08-29 06:58  — 1979-08-29 06:59 54° 0' 7" N  7° 59' 35" E  View metadata report for BODC series reference number 544776
5447881979-08-29 07:39  — 1979-08-29 07:40 53° 59' 55" N  7° 49' 54" E  View metadata report for BODC series reference number 544788
5448071979-08-29 08:25  — 1979-08-29 08:26 54° 0' 4" N  7° 39' 51" E  View metadata report for BODC series reference number 544807
5448191979-08-29 09:10  — 1979-08-29 09:11 53° 59' 57" N  7° 29' 56" E  View metadata report for BODC series reference number 544819
5448201979-08-29 09:59  — 1979-08-29 09:59 53° 59' 58" N  7° 19' 56" E  View metadata report for BODC series reference number 544820
5448321979-08-29 10:51  — 1979-08-29 10:52 54° 0' 0" N  7° 10' 9" E  View metadata report for BODC series reference number 544832
5448441979-08-29 11:49  — 1979-08-29 11:55 53° 59' 44" N  6° 59' 56" E  View metadata report for BODC series reference number 544844
5448561979-08-29 12:52  — 1979-08-29 12:56 54° 0' 0" N  6° 50' 3" E  View metadata report for BODC series reference number 544856
5448681979-08-29 13:50  — 1979-08-29 13:51 53° 59' 40" N  6° 40' 19" E  View metadata report for BODC series reference number 544868
5448811979-08-29 14:42  — 1979-08-29 14:43 53° 59' 46" N  6° 30' 8" E  View metadata report for BODC series reference number 544881
5448931979-08-29 15:29  — 1979-08-29 15:30 53° 59' 56" N  6° 20' 22" E  View metadata report for BODC series reference number 544893
5449001979-08-29 16:53  — 1979-08-29 16:53 53° 49' 50" N  6° 19' 49" E  View metadata report for BODC series reference number 544900
5449121979-08-29 17:44  — 1979-08-29 17:45 53° 49' 50" N  6° 30' 26" E  View metadata report for BODC series reference number 544912
5449241979-08-29 18:36  — 1979-08-29 18:37 53° 49' 50" N  6° 40' 15" E  View metadata report for BODC series reference number 544924
5449361979-08-29 19:26  — 1979-08-29 19:29 53° 49' 55" N  6° 49' 41" E  View metadata report for BODC series reference number 544936
5449481979-08-29 20:32  — 1979-08-29 20:33 53° 49' 55" N  7° 0' 2" E  View metadata report for BODC series reference number 544948
5449611979-08-29 21:18  — 1979-08-29 21:19 53° 49' 58" N  7° 9' 50" E  View metadata report for BODC series reference number 544961
5449731979-08-29 22:03  — 1979-08-29 22:05 53° 49' 58" N  7° 20' 1" E  View metadata report for BODC series reference number 544973
5449851979-08-29 22:46  — 1979-08-29 22:47 53° 49' 58" N  7° 30' 11" E  View metadata report for BODC series reference number 544985
5449971979-08-29 23:28  — 1979-08-29 23:29 53° 50' 2" N  7° 40' 13" E  View metadata report for BODC series reference number 544997
5450001979-08-30 00:07  — 1979-08-30 00:08 53° 49' 54" N  7° 50' 26" E  View metadata report for BODC series reference number 545000
5450121979-08-31 11:52  — 1979-08-31 11:52 55° 5' 3" N  8° 10' 8" E  View metadata report for BODC series reference number 545012
5444261979-08-26 02:05  — 1979-08-26 02:06 54° 20' 3" N  7° 39' 46" E  View metadata report for BODC series reference number 544426
5444381979-08-26 02:59  — 1979-08-26 03:02 54° 19' 56" N  7° 49' 53" E  View metadata report for BODC series reference number 544438
5444511979-08-26 03:53  — 1979-08-26 03:54 54° 20' 1" N  7° 59' 44" E  View metadata report for BODC series reference number 544451
5438771979-08-24 09:34  — 1979-08-24 09:36 55° 0' 4" N  7° 20' 30" E  View metadata report for BODC series reference number 543877
5438891979-08-24 10:17  — 1979-08-24 10:21 54° 59' 59" N  7° 30' 13" E  View metadata report for BODC series reference number 543889
5438901979-08-24 11:00  — 1979-08-24 11:01 54° 59' 58" N  7° 40' 0" E  View metadata report for BODC series reference number 543890
5439081979-08-24 11:48  — 1979-08-24 11:49 55° 0' 29" N  7° 52' 27" E  View metadata report for BODC series reference number 543908
5439211979-08-24 12:37  — 1979-08-24 12:38 54° 59' 57" N  7° 59' 53" E  View metadata report for BODC series reference number 543921
5439331979-08-24 13:22  — 1979-08-24 13:23 54° 59' 58" N  8° 10' 8" E  View metadata report for BODC series reference number 543933
5439451979-08-24 14:44  — 1979-08-24 14:45 54° 49' 49" N  8° 9' 59" E  View metadata report for BODC series reference number 543945
5439571979-08-24 15:33  — 1979-08-24 15:34 54° 50' 1" N  7° 59' 58" E  View metadata report for BODC series reference number 543957
5439691979-08-24 16:27  — 1979-08-24 16:28 54° 49' 56" N  7° 50' 12" E  View metadata report for BODC series reference number 543969
5439701979-08-24 17:12  — 1979-08-24 17:13 54° 49' 50" N  7° 39' 54" E  View metadata report for BODC series reference number 543970
5439821979-08-24 17:53  — 1979-08-24 17:53 54° 49' 51" N  7° 30' 0" E  View metadata report for BODC series reference number 543982
5439941979-08-24 18:35  — 1979-08-24 18:37 54° 49' 52" N  7° 19' 36" E  View metadata report for BODC series reference number 543994
5440081979-08-24 19:18  — 1979-08-24 19:19 54° 49' 39" N  7° 10' 23" E  View metadata report for BODC series reference number 544008
5440211979-08-24 20:09  — 1979-08-24 20:10 54° 49' 45" N  6° 59' 57" E  View metadata report for BODC series reference number 544021
5440331979-08-24 20:54  — 1979-08-24 20:55 54° 49' 59" N  6° 49' 49" E  View metadata report for BODC series reference number 544033
5440451979-08-24 21:41  — 1979-08-24 21:42 54° 49' 45" N  6° 39' 55" E  View metadata report for BODC series reference number 544045
5440571979-08-24 22:25  — 1979-08-24 22:26 54° 49' 55" N  6° 30' 13" E  View metadata report for BODC series reference number 544057
5440691979-08-24 23:15  — 1979-08-24 23:17 54° 49' 55" N  6° 19' 56" E  View metadata report for BODC series reference number 544069
5440701979-08-25 00:37  — 1979-08-25 00:39 54° 39' 22" N  6° 21' 24" E  View metadata report for BODC series reference number 544070
5440821979-08-25 01:23  — 1979-08-25 01:24 54° 40' 4" N  6° 30' 44" E  View metadata report for BODC series reference number 544082
5440941979-08-25 02:13  — 1979-08-25 02:14 54° 40' 2" N  6° 39' 43" E  View metadata report for BODC series reference number 544094
5441011979-08-25 03:07  — 1979-08-25 03:08 54° 39' 49" N  6° 49' 56" E  View metadata report for BODC series reference number 544101
5441131979-08-25 04:00  — 1979-08-25 04:02 54° 39' 52" N  7° 0' 4" E  View metadata report for BODC series reference number 544113
5441251979-08-25 04:48  — 1979-08-25 04:49 54° 38' 33" N  7° 10' 36" E  View metadata report for BODC series reference number 544125
5441371979-08-25 05:34  — 1979-08-25 05:38 54° 39' 54" N  7° 20' 2" E  View metadata report for BODC series reference number 544137
5441491979-08-25 06:21  — 1979-08-25 06:25 54° 39' 56" N  7° 29' 46" E  View metadata report for BODC series reference number 544149
5441501979-08-25 07:13  — 1979-08-25 07:13 54° 39' 51" N  7° 40' 7" E  View metadata report for BODC series reference number 544150
5441621979-08-25 07:54  — 1979-08-25 07:54 54° 39' 58" N  7° 50' 4" E  View metadata report for BODC series reference number 544162
5441741979-08-25 08:36  — 1979-08-25 08:37 54° 39' 51" N  8° 0' 11" E  View metadata report for BODC series reference number 544174
5441861979-08-25 09:15  — 1979-08-25 09:16 54° 39' 52" N  8° 10' 2" E  View metadata report for BODC series reference number 544186
5441981979-08-25 09:55  — 1979-08-25 09:55 54° 34' 32" N  8° 10' 39" E  View metadata report for BODC series reference number 544198
5442051979-08-25 10:33  — 1979-08-25 10:33 54° 29' 55" N  8° 9' 53" E  View metadata report for BODC series reference number 544205
5442171979-08-25 11:24  — 1979-08-25 11:24 54° 29' 56" N  8° 0' 22" E  View metadata report for BODC series reference number 544217
5442291979-08-25 12:20  — 1979-08-25 12:21 54° 29' 50" N  7° 49' 47" E  View metadata report for BODC series reference number 544229
5442301979-08-25 13:08  — 1979-08-25 13:09 54° 30' 0" N  7° 39' 22" E  View metadata report for BODC series reference number 544230
5442421979-08-25 13:48  — 1979-08-25 13:49 54° 30' 4" N  7° 29' 44" E  View metadata report for BODC series reference number 544242
5442541979-08-25 14:45  — 1979-08-25 14:47 54° 30' 0" N  7° 20' 2" E  View metadata report for BODC series reference number 544254
5442661979-08-25 15:31  — 1979-08-25 15:32 54° 30' 11" N  7° 9' 40" E  View metadata report for BODC series reference number 544266
5442781979-08-25 16:15  — 1979-08-25 16:16 54° 30' 0" N  6° 59' 44" E  View metadata report for BODC series reference number 544278
5442911979-08-25 16:54  — 1979-08-25 16:55 54° 30' 4" N  6° 49' 45" E  View metadata report for BODC series reference number 544291
5443091979-08-25 17:32  — 1979-08-25 17:33 54° 29' 52" N  6° 40' 11" E  View metadata report for BODC series reference number 544309
5443101979-08-25 18:12  — 1979-08-25 18:13 54° 29' 57" N  6° 30' 30" E  View metadata report for BODC series reference number 544310
5443221979-08-25 18:59  — 1979-08-25 19:00 54° 30' 2" N  6° 19' 55" E  View metadata report for BODC series reference number 544322
5443341979-08-25 20:13  — 1979-08-25 20:14 54° 19' 43" N  6° 20' 19" E  View metadata report for BODC series reference number 544334
5443461979-08-25 20:55  — 1979-08-25 20:56 54° 19' 30" N  6° 30' 35" E  View metadata report for BODC series reference number 544346
5443581979-08-25 21:41  — 1979-08-25 21:43 54° 19' 25" N  6° 40' 29" E  View metadata report for BODC series reference number 544358
5443711979-08-25 22:19  — 1979-08-25 22:20 54° 19' 39" N  6° 50' 21" E  View metadata report for BODC series reference number 544371
5443831979-08-25 23:00  — 1979-08-25 23:01 54° 19' 24" N  7° 0' 22" E  View metadata report for BODC series reference number 544383
5443951979-08-25 23:43  — 1979-08-25 23:46 54° 19' 34" N  7° 10' 29" E  View metadata report for BODC series reference number 544395
5444021979-08-26 00:32  — 1979-08-26 00:33 54° 19' 37" N  7° 20' 27" E  View metadata report for BODC series reference number 544402
5444141979-08-26 01:16  — 1979-08-26 01:17 54° 20' 3" N  7° 29' 53" E  View metadata report for BODC series reference number 544414
5438411979-08-24 07:21  — 1979-08-24 07:22 55° 0' 10" N  6° 50' 50" E  View metadata report for BODC series reference number 543841
5438531979-08-24 08:06  — 1979-08-24 08:10 55° 0' 5" N  7° 0' 36" E  View metadata report for BODC series reference number 543853
5438651979-08-24 08:52  — 1979-08-24 08:55 55° 0' 9" N  7° 10' 47" E  View metadata report for BODC series reference number 543865
5456261979-09-02 10:03  — 1979-09-02 10:04 54° 24' 51" N  6° 50' 26" E  View metadata report for BODC series reference number 545626
5456381979-09-02 10:43  — 1979-09-02 10:45 54° 24' 58" N  6° 41' 22" E  View metadata report for BODC series reference number 545638
5456511979-09-02 11:31  — 1979-09-02 11:33 54° 24' 46" N  6° 30' 1" E  View metadata report for BODC series reference number 545651
5456631979-09-02 12:18  — 1979-09-02 12:19 54° 25' 29" N  6° 19' 10" E  View metadata report for BODC series reference number 545663
5456751979-09-02 14:47  — 1979-09-02 14:48 54° 4' 42" N  6° 21' 0" E  View metadata report for BODC series reference number 545675
5456871979-09-02 15:31  — 1979-09-02 15:32 54° 4' 45" N  6° 30' 55" E  View metadata report for BODC series reference number 545687
5456991979-09-02 16:11  — 1979-09-02 16:13 54° 4' 48" N  6° 40' 38" E  View metadata report for BODC series reference number 545699
5457061979-09-02 16:50  — 1979-09-02 16:51 54° 4' 50" N  6° 50' 33" E  View metadata report for BODC series reference number 545706
5457181979-09-02 17:29  — 1979-09-02 17:30 54° 4' 52" N  7° 0' 11" E  View metadata report for BODC series reference number 545718
5457311979-09-02 18:08  — 1979-09-02 18:11 54° 4' 51" N  7° 10' 13" E  View metadata report for BODC series reference number 545731
5457431979-09-02 18:52  — 1979-09-02 18:53 54° 4' 54" N  7° 20' 4" E  View metadata report for BODC series reference number 545743